createdAt,value
2019-03-30T00:00:43.265Z,73.62
2019-03-30T00:03:11.965Z,69.58
2019-03-30T00:05:40.767Z,71.60
2019-03-30T00:08:09.175Z,72.25
2019-03-30T00:10:37.666Z,67.75
2019-03-30T00:13:06.498Z,59.63
2019-03-30T00:15:34.947Z,71.10
2019-03-30T00:18:03.714Z,63.33
2019-03-30T00:20:32.303Z,68.95
2019-03-30T00:23:00.710Z,63.17
2019-03-30T00:25:29.123Z,61.37
2019-03-30T00:27:57.848Z,67.30
2019-03-30T00:30:26.270Z,69.37
2019-03-30T00:32:54.703Z,64.20
2019-03-30T00:35:23.276Z,63.00
2019-03-30T00:37:51.707Z,49.90
2019-03-30T00:40:20.118Z,54.73
2019-03-30T00:42:49.178Z,49.60
2019-03-30T00:45:17.991Z,41.63
2019-03-30T00:47:46.425Z,48.65
2019-03-30T00:50:14.879Z,48.60
2019-03-30T00:52:43.296Z,45.33
2019-03-30T00:55:11.750Z,51.33
2019-03-30T00:57:40.171Z,46.33
2019-03-30T01:00:08.919Z,43.70
2019-03-30T01:02:37.371Z,48.08
2019-03-30T01:05:06.652Z,45.75
2019-03-30T01:07:35.109Z,32.93
2019-03-30T01:10:04.848Z,31.02
2019-03-30T01:12:33.362Z,26.55
2019-03-30T01:15:01.778Z,29.32
2019-03-30T01:17:30.216Z,40.10
2019-03-30T01:20:03.175Z,36.95
2019-03-30T01:22:28.720Z,34.13
2019-03-30T01:24:57.467Z,34.55
2019-03-30T01:27:26.237Z,30.80
2019-03-30T01:29:54.638Z,39.58
2019-03-30T01:32:23.087Z,56.20
2019-03-30T01:34:51.622Z,60.60
2019-03-30T01:37:20.051Z,55.40
2019-03-30T01:39:48.501Z,48.65
2019-03-30T01:42:16.909Z,50.98
2019-03-30T01:44:45.356Z,51.95
2019-03-30T01:47:14.083Z,57.23
2019-03-30T01:49:42.527Z,50.60
2019-03-30T01:52:10.944Z,55.95
2019-03-30T01:54:39.363Z,56.05
2019-03-30T01:57:07.815Z,60.50
2019-03-30T01:59:36.585Z,57.17
2019-03-30T02:02:05.375Z,65.17
2019-03-30T02:04:33.862Z,55.78
2019-03-30T02:07:02.270Z,56.60
2019-03-30T02:09:30.720Z,53.02
2019-03-30T02:11:59.262Z,51.63
2019-03-30T02:14:27.800Z,47.03
2019-03-30T02:16:56.558Z,58.42
2019-03-30T02:19:25.360Z,56.70
2019-03-30T02:21:53.759Z,49.40
2019-03-30T02:24:22.208Z,56.92
2019-03-30T02:26:50.932Z,53.70
2019-03-30T02:29:19.643Z,51.77
2019-03-30T02:31:48.470Z,52.48
2019-03-30T02:34:17.259Z,46.45
2019-03-30T02:36:45.703Z,50.10
2019-03-30T02:39:14.192Z,43.52
2019-03-30T02:41:42.598Z,50.10
2019-03-30T02:44:11.053Z,40.52
2019-03-30T02:46:39.495Z,43.10
2019-03-30T02:49:07.912Z,44.93
2019-03-30T02:51:36.737Z,47.60
2019-03-30T02:54:05.169Z,46.55
2019-03-30T02:56:33.991Z,42.50
2019-03-30T02:59:02.490Z,49.77
2019-03-30T03:01:31.245Z,48.58
2019-03-30T03:03:59.695Z,50.40
2019-03-30T03:06:28.105Z,48.58
2019-03-30T03:08:56.554Z,46.20
2019-03-30T03:11:25.126Z,44.88
2019-03-30T03:13:53.483Z,47.73
2019-03-30T03:16:21.963Z,45.28
2019-03-30T03:18:50.375Z,49.38
2019-03-30T03:21:19.072Z,44.77
2019-03-30T03:23:47.512Z,49.20
2019-03-30T03:26:15.927Z,46.88
2019-03-30T03:28:44.747Z,45.95
2019-03-30T03:31:13.151Z,45.70
2019-03-30T03:33:41.596Z,46.53
2019-03-30T03:36:10.004Z,46.50
2019-03-30T03:38:38.769Z,42.93
2019-03-30T03:41:07.184Z,42.35
2019-03-30T03:43:36.113Z,42.10
2019-03-30T03:46:04.473Z,46.45
2019-03-30T03:48:32.915Z,43.58
2019-03-30T03:51:03.400Z,43.90
2019-03-30T03:53:33.180Z,44.10
2019-03-30T03:56:01.879Z,45.23
2019-03-30T03:58:33.182Z,43.45
2019-03-30T04:01:02.069Z,37.98
2019-03-30T04:03:32.408Z,38.33
2019-03-30T04:06:02.701Z,39.25
2019-03-30T04:08:31.660Z,43.75
2019-03-30T04:11:00.176Z,40.28
2019-03-30T04:13:29.339Z,42.50
2019-03-30T04:15:58.106Z,39.83
2019-03-30T04:18:26.952Z,40.50
2019-03-30T04:20:55.446Z,39.63
2019-03-30T04:23:24.207Z,41.98
2019-03-30T04:25:53.002Z,40.55
2019-03-30T04:28:21.697Z,45.45
2019-03-30T04:30:50.147Z,41.75
2019-03-30T04:33:18.977Z,40.50
2019-03-30T04:35:47.747Z,40.03
2019-03-30T04:38:16.152Z,37.80
2019-03-30T04:40:44.603Z,43.20
2019-03-30T04:43:13.009Z,39.88
2019-03-30T04:45:41.523Z,41.83
2019-03-30T04:48:09.937Z,42.33
2019-03-30T04:50:38.723Z,36.48
2019-03-30T04:53:07.133Z,38.28
2019-03-30T04:55:35.529Z,42.80
2019-03-30T04:58:03.969Z,42.30
2019-03-30T05:00:32.550Z,37.40
2019-03-30T05:03:00.958Z,44.48
2019-03-30T05:05:29.425Z,40.38
2019-03-30T05:07:57.871Z,44.75
2019-03-30T05:10:26.703Z,41.70
2019-03-30T05:12:55.148Z,35.83
2019-03-30T05:15:23.592Z,40.73
2019-03-30T05:17:52.521Z,41.08
2019-03-30T05:20:21.207Z,39.38
2019-03-30T05:22:51.307Z,40.60
2019-03-30T05:25:20.107Z,42.13
2019-03-30T05:27:48.799Z,42.70
2019-03-30T05:30:17.583Z,40.67
2019-03-30T05:32:45.996Z,42.88
2019-03-30T05:35:14.759Z,42.85
2019-03-30T05:37:43.531Z,43.60
2019-03-30T05:40:12.072Z,41.60
2019-03-30T05:42:40.903Z,40.65
2019-03-30T05:45:09.361Z,43.28
2019-03-30T05:47:37.839Z,42.48
2019-03-30T05:50:06.728Z,43.95
2019-03-30T05:52:36.429Z,40.05
2019-03-30T05:55:05.258Z,39.95
2019-03-30T05:57:34.117Z,42.35
2019-03-30T06:00:02.535Z,43.15
2019-03-30T06:02:30.983Z,41.90
2019-03-30T06:05:02.999Z,40.83
2019-03-30T06:07:29.537Z,41.90
2019-03-30T06:09:57.947Z,42.70
2019-03-30T06:12:26.415Z,41.28
2019-03-30T06:14:54.857Z,41.02
2019-03-30T06:17:23.504Z,39.88
2019-03-30T06:19:51.866Z,38.65
2019-03-30T06:22:20.331Z,36.48
2019-03-30T06:24:48.782Z,39.83
2019-03-30T06:27:17.291Z,36.60
2019-03-30T06:30:05.366Z,37.45
2019-03-30T06:32:34.109Z,42.48
2019-03-30T06:35:02.560Z,35.95
2019-03-30T06:37:30.963Z,41.13
2019-03-30T06:39:59.753Z,37.38
2019-03-30T06:42:28.202Z,37.35
2019-03-30T06:44:56.888Z,36.20
2019-03-30T06:47:25.713Z,37.05
2019-03-30T06:49:54.447Z,35.33
2019-03-30T06:52:22.892Z,35.40
2019-03-30T06:54:51.302Z,35.75
2019-03-30T06:57:19.746Z,37.60
2019-03-30T06:59:48.162Z,34.95
2019-03-30T07:02:16.613Z,38.13
2019-03-30T07:04:45.096Z,40.63
2019-03-30T07:07:13.565Z,35.98
2019-03-30T07:09:41.978Z,37.55
2019-03-30T07:12:10.712Z,36.53
2019-03-30T07:14:39.205Z,38.35
2019-03-30T07:17:07.617Z,37.83
2019-03-30T07:19:37.191Z,39.33
2019-03-30T07:22:05.935Z,34.95
2019-03-30T07:24:34.381Z,37.88
2019-03-30T07:27:02.786Z,36.35
2019-03-30T07:29:31.242Z,38.17
2019-03-30T07:31:59.940Z,32.25
2019-03-30T07:34:28.475Z,29.37
2019-03-30T07:36:56.895Z,30.32
2019-03-30T07:39:25.709Z,28.90
2019-03-30T07:41:54.486Z,29.75
2019-03-30T07:44:22.930Z,33.85
2019-03-30T07:46:51.453Z,29.65
2019-03-30T07:49:19.862Z,29.92
2019-03-30T07:51:48.313Z,27.93
2019-03-30T07:54:16.787Z,26.82
2019-03-30T07:56:45.537Z,25.48
2019-03-30T07:59:13.951Z,23.20
2019-03-30T08:01:42.372Z,31.80
2019-03-30T08:04:10.841Z,26.27
2019-03-30T08:06:39.603Z,26.87
2019-03-30T08:09:08.066Z,24.47
2019-03-30T08:11:36.501Z,22.95
2019-03-30T08:14:04.928Z,28.15
2019-03-30T08:16:33.744Z,21.75
2019-03-30T08:19:02.157Z,23.70
2019-03-30T08:21:30.567Z,22.02
2019-03-30T08:23:59.307Z,30.30
2019-03-30T08:26:27.731Z,25.57
2019-03-30T08:28:56.461Z,24.92
2019-03-30T08:31:24.862Z,25.45
2019-03-30T08:33:53.315Z,22.45
2019-03-30T08:36:21.739Z,21.70
2019-03-30T08:38:50.202Z,20.02
2019-03-30T08:41:18.895Z,20.97
2019-03-30T08:43:47.333Z,22.87
2019-03-30T08:46:15.751Z,20.32
2019-03-30T08:48:44.489Z,20.90
2019-03-30T08:51:12.942Z,20.97
2019-03-30T08:53:53.956Z,20.35
2019-03-30T08:56:11.724Z,22.13
2019-03-30T08:58:40.135Z,21.50
2019-03-30T09:01:08.865Z,25.43
2019-03-30T09:03:37.338Z,23.90
2019-03-30T09:06:05.782Z,20.12
2019-03-30T09:08:34.546Z,22.17
2019-03-30T09:11:03.298Z,19.15
2019-03-30T09:13:31.771Z,22.93
2019-03-30T09:16:00.522Z,22.80
2019-03-30T09:18:29.007Z,22.70
2019-03-30T09:20:57.430Z,23.85
2019-03-30T09:23:25.891Z,20.62
2019-03-30T09:25:54.566Z,25.27
2019-03-30T09:28:23.027Z,23.92
2019-03-30T09:30:51.434Z,22.05
2019-03-30T09:33:19.902Z,24.40
2019-03-30T09:35:48.679Z,22.25
2019-03-30T09:38:17.518Z,23.10
2019-03-30T09:40:45.970Z,20.57
2019-03-30T09:43:14.383Z,20.85
2019-03-30T09:45:42.850Z,20.57
2019-03-30T09:48:11.545Z,24.45
2019-03-30T09:50:39.928Z,21.73
2019-03-30T09:53:08.466Z,23.65
2019-03-30T09:55:36.875Z,21.50
2019-03-30T09:58:05.294Z,20.48
2019-03-30T10:00:33.739Z,25.23
2019-03-30T10:03:02.176Z,23.35
2019-03-30T10:05:30.633Z,18.10
2019-03-30T10:07:59.058Z,21.02
2019-03-30T10:10:27.915Z,22.25
2019-03-30T10:12:56.352Z,22.13
2019-03-30T10:15:25.315Z,23.65
2019-03-30T10:17:54.117Z,18.85
2019-03-30T10:20:22.845Z,25.15
2019-03-30T10:22:51.608Z,23.47
2019-03-30T10:25:20.047Z,21.48
2019-03-30T10:27:48.536Z,24.40
2019-03-30T10:30:18.586Z,22.35
2019-03-30T10:32:47.286Z,22.77
2019-03-30T10:35:15.699Z,19.35
2019-03-30T10:37:57.410Z,19.45
2019-03-30T10:40:25.882Z,20.27
2019-03-30T10:42:54.654Z,24.37
2019-03-30T10:45:23.075Z,21.37
2019-03-30T10:47:51.505Z,19.62
2019-03-30T10:50:19.950Z,22.48
2019-03-30T10:52:48.642Z,21.55
2019-03-30T10:55:17.085Z,17.95
2019-03-30T10:57:45.532Z,20.62
2019-03-30T11:00:17.548Z,21.50
2019-03-30T11:02:46.004Z,23.00
2019-03-30T11:05:14.686Z,21.15
2019-03-30T11:07:43.132Z,21.55
2019-03-30T11:10:11.787Z,20.72
2019-03-30T11:12:40.631Z,20.23
2019-03-30T11:15:09.126Z,21.00
2019-03-30T11:17:37.614Z,19.50
2019-03-30T11:20:06.034Z,19.75
2019-03-30T11:22:34.451Z,20.32
2019-03-30T11:25:07.897Z,18.00
2019-03-30T11:27:33.285Z,22.27
2019-03-30T11:30:01.758Z,20.43
2019-03-30T11:32:30.187Z,20.95
2019-03-30T11:34:58.979Z,21.77
2019-03-30T11:37:27.395Z,24.07
2019-03-30T11:39:56.269Z,21.75
2019-03-30T11:42:24.710Z,25.05
2019-03-30T11:44:53.134Z,17.73
2019-03-30T11:47:21.591Z,18.40
2019-03-30T11:49:50.010Z,17.73
2019-03-30T11:52:18.849Z,20.12
2019-03-30T11:54:47.319Z,21.25
2019-03-30T11:57:15.769Z,17.67
2019-03-30T11:59:44.525Z,21.23
2019-03-30T12:02:27.025Z,17.67
2019-03-30T12:04:43.052Z,23.32
2019-03-30T12:07:11.890Z,25.57
2019-03-30T12:09:40.616Z,23.32
2019-03-30T12:12:09.362Z,21.15
2019-03-30T12:14:37.783Z,20.02
2019-03-30T12:17:06.198Z,18.82
2019-03-30T12:19:34.662Z,19.42
2019-03-30T12:22:03.343Z,22.67
2019-03-30T12:24:31.803Z,19.35
2019-03-30T12:27:00.532Z,22.27
2019-03-30T12:29:29.257Z,23.83
2019-03-30T12:31:57.701Z,20.70
2019-03-30T12:34:26.113Z,21.70
2019-03-30T12:36:55.885Z,19.60
2019-03-30T12:39:24.583Z,23.05
2019-03-30T12:41:53.026Z,20.43
2019-03-30T12:44:21.438Z,22.80
2019-03-30T12:46:50.162Z,21.62
2019-03-30T12:49:18.618Z,23.55
2019-03-30T12:51:47.043Z,23.92
2019-03-30T12:54:15.592Z,25.15
2019-03-30T12:56:44.037Z,26.00
2019-03-30T12:59:12.525Z,23.75
2019-03-30T13:01:40.976Z,24.23
2019-03-30T13:04:09.718Z,22.62
2019-03-30T13:06:38.463Z,21.10
2019-03-30T13:09:07.589Z,23.30
2019-03-30T13:11:36.042Z,21.85
2019-03-30T13:14:04.446Z,22.98
2019-03-30T13:16:32.912Z,19.87
2019-03-30T13:19:01.358Z,22.50
2019-03-30T13:21:32.369Z,20.00
2019-03-30T13:28:47.288Z,23.52
2019-03-30T13:31:15.786Z,21.80
2019-03-30T13:33:44.235Z,19.00
2019-03-30T13:36:13.161Z,20.80
2019-03-30T13:38:41.782Z,18.40
2019-03-30T13:41:13.826Z,18.62
2019-03-30T13:43:40.662Z,20.37
2019-03-30T13:46:09.101Z,18.50
2019-03-30T13:48:37.880Z,23.12
2019-03-30T13:51:06.351Z,20.37
2019-03-30T13:53:35.845Z,23.83
2019-03-30T13:56:16.667Z,20.72
2019-03-30T13:58:36.491Z,21.57
2019-03-30T14:01:04.445Z,20.12
2019-03-30T14:03:32.965Z,22.20
2019-03-30T14:06:01.414Z,19.00
2019-03-30T14:08:29.886Z,20.68
2019-03-30T14:10:58.352Z,17.25
2019-03-30T14:13:26.816Z,14.78
2019-03-30T14:15:55.271Z,19.37
2019-03-30T14:18:23.725Z,19.07
2019-03-30T14:20:52.164Z,16.07
2019-03-30T14:23:20.623Z,13.58
2019-03-30T14:25:49.183Z,16.37
2019-03-30T14:28:20.320Z,15.48
2019-03-30T14:30:49.203Z,14.15
2019-03-30T14:33:18.088Z,13.18
2019-03-30T14:35:46.987Z,14.25
2019-03-30T14:38:15.827Z,13.60
2019-03-30T14:40:48.589Z,13.65
2019-03-30T14:43:14.631Z,14.55
2019-03-30T14:45:43.414Z,12.60
2019-03-30T14:48:11.954Z,15.75
2019-03-30T14:50:40.390Z,11.60
2019-03-30T14:53:08.919Z,15.53
2019-03-30T14:55:39.547Z,15.78
2019-03-30T14:58:07.807Z,10.65
2019-03-30T15:00:36.605Z,13.55
2019-03-30T15:03:05.292Z,13.50
2019-03-30T15:05:33.830Z,12.50
2019-03-30T15:08:02.298Z,14.65
2019-03-30T15:10:30.920Z,14.90
2019-03-30T15:12:59.337Z,13.83
2019-03-30T15:15:27.800Z,13.90
2019-03-30T15:17:56.756Z,15.13
2019-03-30T15:20:25.198Z,13.93
2019-03-30T15:22:53.658Z,13.90
2019-03-30T15:25:22.448Z,15.32
2019-03-30T15:27:51.303Z,14.07
2019-03-30T15:30:20.069Z,18.42
2019-03-30T15:32:48.807Z,29.60
2019-03-30T15:35:17.350Z,22.75
2019-03-30T15:37:46.190Z,23.83
2019-03-30T15:40:14.651Z,24.85
2019-03-30T15:42:43.403Z,22.95
2019-03-30T15:45:13.566Z,23.80
2019-03-30T15:47:42.157Z,22.02
2019-03-30T15:50:10.665Z,21.27
2019-03-30T15:52:39.378Z,22.82
2019-03-30T15:55:08.523Z,24.12
2019-03-30T15:57:37.646Z,22.70
2019-03-30T16:00:08.249Z,22.95
2019-03-30T16:02:37.150Z,22.37
2019-03-30T16:05:06.707Z,22.82
2019-03-30T16:07:35.217Z,25.43
2019-03-30T16:10:03.903Z,25.00
2019-03-30T16:12:32.896Z,29.30
2019-03-30T16:15:01.454Z,24.32
2019-03-30T16:17:29.909Z,28.75
2019-03-30T16:19:58.358Z,27.80
2019-03-30T16:22:26.780Z,27.20
2019-03-30T16:24:55.359Z,30.10
2019-03-30T16:27:29.234Z,33.02
2019-03-30T16:29:58.688Z,35.63
2019-03-30T16:32:26.248Z,41.80
2019-03-30T16:34:55.484Z,41.10
2019-03-30T16:37:30.202Z,47.38
2019-03-30T16:39:58.676Z,56.85
2019-03-30T16:42:27.128Z,52.15
2019-03-30T16:44:55.560Z,50.03
2019-03-30T16:47:24.388Z,59.70
2019-03-30T16:49:52.816Z,58.65
2019-03-30T16:52:21.567Z,55.83
2019-03-30T16:54:50.402Z,55.00
2019-03-30T16:57:19.255Z,55.88
2019-03-30T16:59:47.673Z,61.90
2019-03-30T17:02:16.598Z,60.10
2019-03-30T17:04:47.588Z,64.10
2019-03-30T17:07:16.003Z,68.33
2019-03-30T17:09:44.450Z,57.75
2019-03-30T17:12:13.202Z,62.98
2019-03-30T17:14:41.664Z,64.82
2019-03-30T17:17:10.081Z,61.68
2019-03-30T17:19:38.497Z,61.88
2019-03-30T17:22:07.322Z,62.27
2019-03-30T17:24:35.734Z,62.10
2019-03-30T17:27:04.188Z,60.73
2019-03-30T17:29:32.903Z,73.30
2019-03-30T17:32:01.681Z,69.22
2019-03-30T17:34:30.431Z,71.35
2019-03-30T17:36:59.239Z,76.65
2019-03-30T17:39:27.731Z,72.53
2019-03-30T17:41:56.492Z,67.30
2019-03-30T17:44:24.923Z,63.38
2019-03-30T17:46:53.376Z,69.77
2019-03-30T17:49:21.781Z,71.50
2019-03-30T17:51:53.750Z,72.72
2019-03-30T17:54:20.941Z,67.53
2019-03-30T17:56:49.738Z,65.50
2019-03-30T17:59:18.436Z,75.65
2019-03-30T18:01:46.962Z,75.37
2019-03-30T18:04:15.764Z,80.47
2019-03-30T18:06:44.570Z,68.50
2019-03-30T18:09:13.352Z,77.95
2019-03-30T18:11:42.155Z,76.65
2019-03-30T18:14:11.022Z,77.87
2019-03-30T18:16:39.797Z,77.15
2019-03-30T18:19:08.246Z,73.30
2019-03-30T18:21:37.944Z,78.83
2019-03-30T18:24:06.448Z,76.12
2019-03-30T18:26:35.262Z,69.22
2019-03-30T18:29:04.016Z,73.57
2019-03-30T18:31:32.834Z,69.95
2019-03-30T18:34:01.257Z,66.57
2019-03-30T18:36:29.711Z,62.60
2019-03-30T18:39:09.299Z,66.77
2019-03-30T18:41:28.907Z,68.33
2019-03-30T18:43:57.363Z,69.27
2019-03-30T18:46:25.811Z,70.55
2019-03-30T18:48:55.018Z,70.15
2019-03-30T18:51:23.842Z,69.55
2019-03-30T18:53:52.782Z,67.65
2019-03-30T18:56:21.290Z,75.30
2019-03-30T18:58:49.741Z,71.50
2019-03-30T19:01:18.164Z,71.70
2019-03-30T19:03:46.973Z,69.67
2019-03-30T19:06:15.497Z,71.37
2019-03-30T19:08:43.928Z,71.25
2019-03-30T19:11:12.354Z,72.30
2019-03-30T19:13:40.805Z,74.70
2019-03-30T19:16:09.318Z,69.17
2019-03-30T19:18:37.710Z,76.42
2019-03-30T19:21:06.608Z,78.22
2019-03-30T19:23:35.070Z,73.72
2019-03-30T19:26:03.563Z,78.20
2019-03-30T19:28:32.025Z,72.25
2019-03-30T19:31:00.434Z,75.35
2019-03-30T19:33:28.852Z,75.92
2019-03-30T19:35:57.314Z,73.33
2019-03-30T19:38:26.103Z,71.42
2019-03-30T19:40:54.519Z,73.22
2019-03-30T19:43:23.286Z,80.45
2019-03-30T19:45:51.800Z,71.33
2019-03-30T19:48:20.639Z,72.20
2019-03-30T19:50:49.065Z,66.92
2019-03-30T19:53:17.528Z,73.57
2019-03-30T19:55:46.372Z,76.57
2019-03-30T19:58:15.179Z,72.53
2019-03-30T20:00:43.610Z,80.10
2019-03-30T20:03:12.064Z,73.37
2019-03-30T20:05:40.494Z,80.38
2019-03-30T20:08:12.266Z,72.12
2019-03-30T20:10:39.010Z,70.75
2019-03-30T20:13:09.277Z,73.10
2019-03-30T20:15:37.880Z,73.72
2019-03-30T20:18:06.707Z,74.65
2019-03-30T20:20:35.192Z,72.75
2019-03-30T20:23:03.603Z,74.45
2019-03-30T20:25:32.062Z,74.40
2019-03-30T20:28:00.475Z,68.45
2019-03-30T20:30:28.936Z,72.30
2019-03-30T20:32:57.346Z,70.50
2019-03-30T20:35:25.800Z,65.22
2019-03-30T20:37:54.213Z,71.57
2019-03-30T20:40:22.959Z,71.33
2019-03-30T20:42:51.712Z,73.40
2019-03-30T20:45:20.122Z,76.90
2019-03-30T20:47:48.583Z,59.85
2019-03-30T20:50:17.284Z,59.83
2019-03-30T20:52:46.082Z,58.25
2019-03-30T20:55:14.514Z,62.30
2019-03-30T20:57:43.369Z,62.62
2019-03-30T21:00:13.407Z,52.00
2019-03-30T21:02:42.132Z,60.70
2019-03-30T21:05:10.548Z,75.60
2019-03-30T21:07:41.661Z,70.42
2019-03-30T21:10:09.090Z,75.40
2019-03-30T21:12:37.792Z,63.08
2019-03-30T21:15:06.600Z,76.35
2019-03-30T21:17:35.179Z,67.62
2019-03-30T21:20:05.151Z,70.67
2019-03-30T21:22:33.879Z,73.92
2019-03-30T21:25:02.335Z,76.12
2019-03-30T21:27:30.753Z,69.77
2019-03-30T21:29:59.201Z,70.90
2019-03-30T21:32:27.647Z,76.00
2019-03-30T21:34:56.104Z,72.70
2019-03-30T21:37:24.527Z,76.33
2019-03-30T21:39:53.364Z,78.33
2019-03-30T21:42:21.787Z,76.33
2019-03-30T21:44:50.582Z,83.35
2019-03-30T21:47:19.043Z,78.30
2019-03-30T21:49:47.458Z,85.62
2019-03-30T21:52:15.917Z,83.85
2019-03-30T21:54:44.347Z,86.70
2019-03-30T21:57:13.238Z,81.22
2019-03-30T21:59:41.636Z,66.82
2019-03-30T22:02:10.405Z,70.92
2019-03-30T22:04:38.815Z,98.52
2019-03-30T22:07:07.471Z,92.42
2019-03-30T22:09:35.892Z,97.05
2019-03-30T22:12:04.686Z,98.27
2019-03-30T22:14:33.475Z,92.57
2019-03-30T22:17:02.313Z,97.65
2019-03-30T22:19:30.727Z,95.17
2019-03-30T22:21:59.166Z,91.08
2019-03-30T22:24:27.591Z,93.10
2019-03-30T22:26:56.045Z,91.70
2019-03-30T22:29:24.785Z,91.28
2019-03-30T22:31:53.364Z,98.92
2019-03-30T22:34:21.539Z,93.05
2019-03-30T22:36:50.160Z,89.70
2019-03-30T22:39:18.343Z,82.47
2019-03-30T22:41:46.564Z,94.22
2019-03-30T22:44:15.066Z,93.92
2019-03-30T22:46:43.623Z,85.70
2019-03-30T22:49:11.837Z,95.00
2019-03-30T22:51:40.011Z,88.58
2019-03-30T22:54:08.215Z,79.35
2019-03-30T22:56:36.412Z,85.95
2019-03-30T22:59:04.644Z,87.00
2019-03-30T23:01:32.823Z,88.70
2019-03-30T23:04:01.282Z,75.83
2019-03-30T23:06:30.021Z,73.25
2019-03-30T23:08:58.774Z,72.92
2019-03-30T23:11:27.196Z,71.35
2019-03-30T23:13:55.646Z,67.17
2019-03-30T23:16:24.063Z,67.60
2019-03-30T23:18:52.515Z,66.07
2019-03-30T23:21:20.929Z,68.33
2019-03-30T23:23:49.372Z,63.30
2019-03-30T23:26:17.825Z,63.98
2019-03-30T23:28:46.279Z,66.25
2019-03-30T23:31:15.012Z,62.48
2019-03-30T23:33:43.433Z,62.08
2019-03-30T23:36:11.889Z,60.17
2019-03-30T23:38:40.330Z,66.77
2019-03-30T23:41:09.104Z,55.92
2019-03-30T23:43:37.940Z,56.95
2019-03-30T23:46:06.362Z,64.27
2019-03-30T23:48:35.056Z,64.35
2019-03-30T23:51:03.442Z,63.78
2019-03-30T23:53:32.043Z,65.80
2019-03-30T23:56:00.507Z,67.53
2019-03-30T23:58:28.975Z,65.28
